sensor_id;sensor_type;location;lat;lon;timestamp;temperature;humidity
1546;DHT22;766;51.502;9.752;2023-01-19T00:01:21;-2.10;99.90
1546;DHT22;766;51.502;9.752;2023-01-19T00:03:49;-2.10;99.90
1546;DHT22;766;51.502;9.752;2023-01-19T00:06:18;-2.20;99.90
1546;DHT22;766;51.502;9.752;2023-01-19T00:08:46;-2.10;99.90
1546;DHT22;766;51.502;9.752;2023-01-19T00:11:17;-2.10;99.90
1546;DHT22;766;51.502;9.752;2023-01-19T00:13:46;-2.20;99.90
1546;DHT22;766;51.502;9.752;2023-01-19T00:16:19;-2.10;99.90
1546;DHT22;766;51.502;9.752;2023-01-19T00:18:50;-2.10;99.90
1546;DHT22;766;51.502;9.752;2023-01-19T00:21:19;-2.10;99.90
1546;DHT22;766;51.502;9.752;2023-01-19T00:23:48;-2.20;99.90
1546;DHT22;766;51.502;9.752;2023-01-19T00:26:19;-2.20;99.90
1546;DHT22;766;51.502;9.752;2023-01-19T00:28:49;-2.10;99.90
1546;DHT22;766;51.502;9.752;2023-01-19T00:31:20;-2.20;99.90
1546;DHT22;766;51.502;9.752;2023-01-19T00:33:48;-2.20;99.90
1546;DHT22;766;51.502;9.752;2023-01-19T00:36:19;-2.20;99.90
1546;DHT22;766;51.502;9.752;2023-01-19T00:38:47;-2.30;99.90
1546;DHT22;766;51.502;9.752;2023-01-19T00:41:16;-2.20;99.90
1546;DHT22;766;51.502;9.752;2023-01-19T00:44:06;-2.10;99.90
1546;DHT22;766;51.502;9.752;2023-01-19T00:46:35;-2.20;99.90
1546;DHT22;766;51.502;9.752;2023-01-19T00:49:05;-2.20;99.90
1546;DHT22;766;51.502;9.752;2023-01-19T00:51:33;-2.20;99.90
1546;DHT22;766;51.502;9.752;2023-01-19T00:54:03;-2.20;99.90
1546;DHT22;766;51.502;9.752;2023-01-19T00:56:36;-2.20;99.90
1546;DHT22;766;51.502;9.752;2023-01-19T00:59:05;-2.20;99.90
1546;DHT22;766;51.502;9.752;2023-01-19T01:01:35;-2.20;99.90
1546;DHT22;766;51.502;9.752;2023-01-19T01:04:16;-2.20;99.90
1546;DHT22;766;51.502;9.752;2023-01-19T01:06:45;-2.20;99.90
1546;DHT22;766;51.502;9.752;2023-01-19T01:09:14;-2.20;99.90
1546;DHT22;766;51.502;9.752;2023-01-19T01:11:43;-2.30;99.90
1546;DHT22;766;51.502;9.752;2023-01-19T01:14:12;-2.20;99.90
1546;DHT22;766;51.502;9.752;2023-01-19T01:16:42;-2.20;99.90
1546;DHT22;766;51.502;9.752;2023-01-19T01:19:10;-2.20;99.90
1546;DHT22;766;51.502;9.752;2023-01-19T01:21:41;-2.20;99.90
1546;DHT22;766;51.502;9.752;2023-01-19T01:24:09;-2.20;99.90
1546;DHT22;766;51.502;9.752;2023-01-19T01:26:38;-2.20;99.90
1546;DHT22;766;51.502;9.752;2023-01-19T01:29:06;-2.20;99.90
1546;DHT22;766;51.502;9.752;2023-01-19T01:31:34;-2.20;99.90
1546;DHT22;766;51.502;9.752;2023-01-19T01:34:04;-2.10;99.90
1546;DHT22;766;51.502;9.752;2023-01-19T01:36:33;-2.10;99.90
1546;DHT22;766;51.502;9.752;2023-01-19T01:39:03;-2.10;99.90
1546;DHT22;766;51.502;9.752;2023-01-19T01:41:31;-2.20;99.90
1546;DHT22;766;51.502;9.752;2023-01-19T01:43:59;-2.20;99.90
1546;DHT22;766;51.502;9.752;2023-01-19T01:46:32;-2.20;99.90
1546;DHT22;766;51.502;9.752;2023-01-19T01:49:04;-2.20;99.90
1546;DHT22;766;51.502;9.752;2023-01-19T01:51:39;-2.20;99.90
1546;DHT22;766;51.502;9.752;2023-01-19T01:54:16;-2.20;99.90
1546;DHT22;766;51.502;9.752;2023-01-19T01:56:50;-2.10;99.90
1546;DHT22;766;51.502;9.752;2023-01-19T01:59:22;-2.10;99.90
1546;DHT22;766;51.502;9.752;2023-01-19T02:01:54;-2.10;99.90
1546;DHT22;766;51.502;9.752;2023-01-19T02:04:46;-2.10;99.90
1546;DHT22;766;51.502;9.752;2023-01-19T02:07:23;-2.10;99.90
1546;DHT22;766;51.502;9.752;2023-01-19T02:10:11;-2.00;99.90
1546;DHT22;766;51.502;9.752;2023-01-19T02:12:57;-1.90;99.90
1546;DHT22;766;51.502;9.752;2023-01-19T02:15:44;-1.80;99.90
1546;DHT22;766;51.502;9.752;2023-01-19T02:18:12;-1.80;99.90
1546;DHT22;766;51.502;9.752;2023-01-19T02:20:48;-1.80;99.90
1546;DHT22;766;51.502;9.752;2023-01-19T02:23:26;-1.70;99.90
1546;DHT22;766;51.502;9.752;2023-01-19T02:25:59;-1.70;99.90
1546;DHT22;766;51.502;9.752;2023-01-19T02:28:28;-1.70;99.90
1546;DHT22;766;51.502;9.752;2023-01-19T02:30:57;-1.70;99.90
1546;DHT22;766;51.502;9.752;2023-01-19T02:33:25;-1.70;99.90
1546;DHT22;766;51.502;9.752;2023-01-19T02:35:54;-1.70;99.90
1546;DHT22;766;51.502;9.752;2023-01-19T02:38:25;-1.70;99.90
1546;DHT22;766;51.502;9.752;2023-01-19T02:40:59;-1.70;99.90
1546;DHT22;766;51.502;9.752;2023-01-19T02:43:29;-1.70;99.90
1546;DHT22;766;51.502;9.752;2023-01-19T02:45:58;-1.70;99.90
1546;DHT22;766;51.502;9.752;2023-01-19T02:48:28;-1.70;99.90
1546;DHT22;766;51.502;9.752;2023-01-19T02:50:57;-1.70;99.90
1546;DHT22;766;51.502;9.752;2023-01-19T02:53:51;-1.80;99.90
1546;DHT22;766;51.502;9.752;2023-01-19T02:59:22;-1.80;99.90
1546;DHT22;766;51.502;9.752;2023-01-19T03:02:14;-1.80;99.90
1546;DHT22;766;51.502;9.752;2023-01-19T03:04:56;-1.90;99.90
1546;DHT22;766;51.502;9.752;2023-01-19T03:07:33;-1.80;99.90
1546;DHT22;766;51.502;9.752;2023-01-19T03:10:11;-1.80;99.90
1546;DHT22;766;51.502;9.752;2023-01-19T03:12:46;-1.80;99.90
1546;DHT22;766;51.502;9.752;2023-01-19T03:15:19;-1.80;99.90
1546;DHT22;766;51.502;9.752;2023-01-19T03:17:50;-1.70;99.90
1546;DHT22;766;51.502;9.752;2023-01-19T03:20:22;-1.70;99.90
1546;DHT22;766;51.502;9.752;2023-01-19T03:22:54;-1.70;99.90
1546;DHT22;766;51.502;9.752;2023-01-19T03:25:30;-1.70;99.90
1546;DHT22;766;51.502;9.752;2023-01-19T03:28:02;-1.70;99.90
1546;DHT22;766;51.502;9.752;2023-01-19T03:30:36;-1.60;99.90
1546;DHT22;766;51.502;9.752;2023-01-19T03:33:10;-1.70;99.90
1546;DHT22;766;51.502;9.752;2023-01-19T03:35:43;-1.70;99.90
1546;DHT22;766;51.502;9.752;2023-01-19T03:38:19;-1.70;99.90
1546;DHT22;766;51.502;9.752;2023-01-19T03:40:51;-1.70;99.90
1546;DHT22;766;51.502;9.752;2023-01-19T03:43:22;-1.70;99.90
1546;DHT22;766;51.502;9.752;2023-01-19T03:45:52;-1.70;99.90
1546;DHT22;766;51.502;9.752;2023-01-19T03:48:22;-1.70;99.90
1546;DHT22;766;51.502;9.752;2023-01-19T03:50:52;-1.70;99.90
1546;DHT22;766;51.502;9.752;2023-01-19T03:53:20;-1.70;99.90
1546;DHT22;766;51.502;9.752;2023-01-19T03:55:51;-1.80;99.90
1546;DHT22;766;51.502;9.752;2023-01-19T03:58:21;-1.70;99.90
1546;DHT22;766;51.502;9.752;2023-01-19T04:00:49;-1.80;99.90
1546;DHT22;766;51.502;9.752;2023-01-19T04:03:17;-1.90;99.90
1546;DHT22;766;51.502;9.752;2023-01-19T04:05:46;-1.90;99.90
1546;DHT22;766;51.502;9.752;2023-01-19T04:08:14;-1.90;99.90
1546;DHT22;766;51.502;9.752;2023-01-19T04:10:43;-1.90;99.90
1546;DHT22;766;51.502;9.752;2023-01-19T04:13:12;-1.90;99.90
1546;DHT22;766;51.502;9.752;2023-01-19T04:15:41;-1.90;99.90
1546;DHT22;766;51.502;9.752;2023-01-19T04:18:09;-1.90;99.90
1546;DHT22;766;51.502;9.752;2023-01-19T04:20:38;-2.00;99.90
1546;DHT22;766;51.502;9.752;2023-01-19T04:23:06;-2.00;99.90
1546;DHT22;766;51.502;9.752;2023-01-19T04:25:35;-2.00;99.90
1546;DHT22;766;51.502;9.752;2023-01-19T04:28:04;-2.00;99.90
1546;DHT22;766;51.502;9.752;2023-01-19T04:30:34;-2.00;99.90
1546;DHT22;766;51.502;9.752;2023-01-19T04:33:02;-1.90;99.90
1546;DHT22;766;51.502;9.752;2023-01-19T04:35:31;-1.90;99.90
1546;DHT22;766;51.502;9.752;2023-01-19T04:38:00;-2.00;99.90
1546;DHT22;766;51.502;9.752;2023-01-19T04:40:28;-1.90;99.90
1546;DHT22;766;51.502;9.752;2023-01-19T04:42:57;-1.90;99.90
1546;DHT22;766;51.502;9.752;2023-01-19T04:45:25;-1.90;99.90
1546;DHT22;766;51.502;9.752;2023-01-19T04:47:56;-1.90;99.90
1546;DHT22;766;51.502;9.752;2023-01-19T04:50:27;-1.90;99.90
1546;DHT22;766;51.502;9.752;2023-01-19T04:52:55;-2.00;99.90
1546;DHT22;766;51.502;9.752;2023-01-19T04:55:27;-1.90;99.90
1546;DHT22;766;51.502;9.752;2023-01-19T04:57:56;-2.00;99.90
1546;DHT22;766;51.502;9.752;2023-01-19T05:00:24;-2.00;99.90
1546;DHT22;766;51.502;9.752;2023-01-19T05:02:53;-2.10;99.90
1546;DHT22;766;51.502;9.752;2023-01-19T05:05:23;-2.10;99.90
1546;DHT22;766;51.502;9.752;2023-01-19T05:07:53;-2.10;99.90
1546;DHT22;766;51.502;9.752;2023-01-19T05:10:21;-2.10;99.90
1546;DHT22;766;51.502;9.752;2023-01-19T05:12:50;-2.10;99.90
1546;DHT22;766;51.502;9.752;2023-01-19T05:15:19;-2.10;99.90
1546;DHT22;766;51.502;9.752;2023-01-19T05:17:47;-2.10;99.90
1546;DHT22;766;51.502;9.752;2023-01-19T05:20:16;-2.10;99.90
1546;DHT22;766;51.502;9.752;2023-01-19T05:22:51;-2.10;99.90
1546;DHT22;766;51.502;9.752;2023-01-19T05:25:19;-2.10;99.90
1546;DHT22;766;51.502;9.752;2023-01-19T05:27:48;-2.10;99.90
1546;DHT22;766;51.502;9.752;2023-01-19T05:30:16;-2.10;99.90
1546;DHT22;766;51.502;9.752;2023-01-19T05:32:46;-2.10;99.90
1546;DHT22;766;51.502;9.752;2023-01-19T05:35:14;-2.10;99.90
1546;DHT22;766;51.502;9.752;2023-01-19T05:37:48;-2.10;99.90
1546;DHT22;766;51.502;9.752;2023-01-19T05:40:18;-2.10;99.90
1546;DHT22;766;51.502;9.752;2023-01-19T05:42:46;-2.10;99.90
1546;DHT22;766;51.502;9.752;2023-01-19T05:45:16;-2.10;99.90
1546;DHT22;766;51.502;9.752;2023-01-19T05:47:44;-2.20;99.90
1546;DHT22;766;51.502;9.752;2023-01-19T05:50:13;-2.20;99.90
1546;DHT22;766;51.502;9.752;2023-01-19T05:52:41;-2.20;99.90
1546;DHT22;766;51.502;9.752;2023-01-19T05:55:09;-2.20;99.90
1546;DHT22;766;51.502;9.752;2023-01-19T05:57:47;-2.20;99.90
1546;DHT22;766;51.502;9.752;2023-01-19T06:00:16;-2.10;99.90
1546;DHT22;766;51.502;9.752;2023-01-19T06:02:45;-2.00;99.90
1546;DHT22;766;51.502;9.752;2023-01-19T06:05:15;-2.00;99.90
1546;DHT22;766;51.502;9.752;2023-01-19T06:07:43;-1.90;99.90
1546;DHT22;766;51.502;9.752;2023-01-19T06:10:11;-1.90;99.90
1546;DHT22;766;51.502;9.752;2023-01-19T06:12:45;-1.90;99.90
1546;DHT22;766;51.502;9.752;2023-01-19T06:15:13;-1.90;99.90
1546;DHT22;766;51.502;9.752;2023-01-19T06:17:44;-2.00;99.90
1546;DHT22;766;51.502;9.752;2023-01-19T06:20:12;-1.90;99.90
1546;DHT22;766;51.502;9.752;2023-01-19T06:22:41;-1.90;99.90
1546;DHT22;766;51.502;9.752;2023-01-19T06:25:10;-1.90;99.90
1546;DHT22;766;51.502;9.752;2023-01-19T06:27:42;-1.90;99.90
1546;DHT22;766;51.502;9.752;2023-01-19T06:30:15;-1.80;99.90
1546;DHT22;766;51.502;9.752;2023-01-19T06:32:48;-1.90;99.90
1546;DHT22;766;51.502;9.752;2023-01-19T06:35:16;-1.80;99.90
1546;DHT22;766;51.502;9.752;2023-01-19T06:37:46;-1.80;99.90
1546;DHT22;766;51.502;9.752;2023-01-19T06:40:14;-1.80;99.90
1546;DHT22;766;51.502;9.752;2023-01-19T06:42:43;-1.80;99.90
1546;DHT22;766;51.502;9.752;2023-01-19T06:45:11;-1.80;99.90
1546;DHT22;766;51.502;9.752;2023-01-19T06:47:41;-1.80;99.90
1546;DHT22;766;51.502;9.752;2023-01-19T06:50:10;-1.80;99.90
1546;DHT22;766;51.502;9.752;2023-01-19T06:52:38;-1.80;99.90
1546;DHT22;766;51.502;9.752;2023-01-19T06:55:09;-1.80;99.90
1546;DHT22;766;51.502;9.752;2023-01-19T06:57:38;-1.70;99.90
1546;DHT22;766;51.502;9.752;2023-01-19T07:00:07;-1.70;99.90
1546;DHT22;766;51.502;9.752;2023-01-19T07:02:41;-1.80;99.90
1546;DHT22;766;51.502;9.752;2023-01-19T07:05:09;-1.80;99.90
1546;DHT22;766;51.502;9.752;2023-01-19T07:07:43;-1.70;99.90
1546;DHT22;766;51.502;9.752;2023-01-19T07:10:11;-1.70;99.90
1546;DHT22;766;51.502;9.752;2023-01-19T07:12:41;-1.70;99.90
1546;DHT22;766;51.502;9.752;2023-01-19T07:15:13;-1.60;99.90
1546;DHT22;766;51.502;9.752;2023-01-19T07:17:44;-1.60;99.90
1546;DHT22;766;51.502;9.752;2023-01-19T07:20:14;-1.60;99.90
1546;DHT22;766;51.502;9.752;2023-01-19T07:22:44;-1.60;99.90
1546;DHT22;766;51.502;9.752;2023-01-19T07:25:12;-1.60;99.90
1546;DHT22;766;51.502;9.752;2023-01-19T07:27:41;-1.60;99.90
1546;DHT22;766;51.502;9.752;2023-01-19T07:30:11;-1.50;99.90
1546;DHT22;766;51.502;9.752;2023-01-19T07:32:41;-1.50;99.90
1546;DHT22;766;51.502;9.752;2023-01-19T07:35:11;-1.50;99.90
1546;DHT22;766;51.502;9.752;2023-01-19T07:37:40;-1.40;99.90
1546;DHT22;766;51.502;9.752;2023-01-19T07:40:09;-1.40;99.90
1546;DHT22;766;51.502;9.752;2023-01-19T07:42:37;-1.30;99.90
1546;DHT22;766;51.502;9.752;2023-01-19T07:45:07;-1.40;99.90
1546;DHT22;766;51.502;9.752;2023-01-19T07:47:35;-1.40;99.90
1546;DHT22;766;51.502;9.752;2023-01-19T07:50:04;-1.30;99.90
1546;DHT22;766;51.502;9.752;2023-01-19T07:52:37;-1.30;99.90
1546;DHT22;766;51.502;9.752;2023-01-19T07:55:07;-1.20;99.90
1546;DHT22;766;51.502;9.752;2023-01-19T07:57:35;-1.10;99.90
1546;DHT22;766;51.502;9.752;2023-01-19T08:00:04;-1.10;99.90
1546;DHT22;766;51.502;9.752;2023-01-19T08:02:34;-1.00;99.90
1546;DHT22;766;51.502;9.752;2023-01-19T08:05:04;-1.00;99.90
1546;DHT22;766;51.502;9.752;2023-01-19T08:07:32;-1.00;99.90
1546;DHT22;766;51.502;9.752;2023-01-19T08:10:03;-1.00;99.90
1546;DHT22;766;51.502;9.752;2023-01-19T08:12:31;-1.00;99.90
1546;DHT22;766;51.502;9.752;2023-01-19T08:14:59;-1.00;99.90
1546;DHT22;766;51.502;9.752;2023-01-19T08:17:28;-1.00;99.90
1546;DHT22;766;51.502;9.752;2023-01-19T08:19:56;-1.00;99.90
1546;DHT22;766;51.502;9.752;2023-01-19T08:22:24;-0.90;99.90
1546;DHT22;766;51.502;9.752;2023-01-19T08:24:52;-0.90;99.90
1546;DHT22;766;51.502;9.752;2023-01-19T08:27:22;-0.80;99.90
1546;DHT22;766;51.502;9.752;2023-01-19T08:29:51;-0.80;99.90
1546;DHT22;766;51.502;9.752;2023-01-19T08:32:20;-0.70;99.90
1546;DHT22;766;51.502;9.752;2023-01-19T08:34:49;-0.80;99.90
1546;DHT22;766;51.502;9.752;2023-01-19T08:37:18;-0.80;99.90
1546;DHT22;766;51.502;9.752;2023-01-19T08:39:48;-0.80;99.90
1546;DHT22;766;51.502;9.752;2023-01-19T08:42:20;-0.70;99.90
1546;DHT22;766;51.502;9.752;2023-01-19T08:44:49;-0.70;99.90
1546;DHT22;766;51.502;9.752;2023-01-19T08:47:24;-0.60;99.90
1546;DHT22;766;51.502;9.752;2023-01-19T08:49:53;-0.60;99.90
1546;DHT22;766;51.502;9.752;2023-01-19T08:52:21;-0.50;99.90
1546;DHT22;766;51.502;9.752;2023-01-19T08:54:52;-0.60;99.90
1546;DHT22;766;51.502;9.752;2023-01-19T08:57:20;-0.60;99.90
1546;DHT22;766;51.502;9.752;2023-01-19T08:59:52;-0.60;99.90
1546;DHT22;766;51.502;9.752;2023-01-19T09:02:20;-0.50;99.90
1546;DHT22;766;51.502;9.752;2023-01-19T09:04:48;-0.50;99.90
1546;DHT22;766;51.502;9.752;2023-01-19T09:07:18;-0.50;99.90
1546;DHT22;766;51.502;9.752;2023-01-19T09:09:48;-0.40;99.90
1546;DHT22;766;51.502;9.752;2023-01-19T09:12:18;-0.40;99.90
1546;DHT22;766;51.502;9.752;2023-01-19T09:14:49;-0.40;99.90
1546;DHT22;766;51.502;9.752;2023-01-19T09:17:17;-0.40;99.90
1546;DHT22;766;51.502;9.752;2023-01-19T09:19:47;-0.40;99.90
1546;DHT22;766;51.502;9.752;2023-01-19T09:22:15;-0.50;99.90
1546;DHT22;766;51.502;9.752;2023-01-19T09:24:43;-0.50;99.90
1546;DHT22;766;51.502;9.752;2023-01-19T09:27:11;-0.60;99.90
1546;DHT22;766;51.502;9.752;2023-01-19T09:29:40;-0.70;99.90
1546;DHT22;766;51.502;9.752;2023-01-19T09:32:09;-0.70;99.90
1546;DHT22;766;51.502;9.752;2023-01-19T09:34:37;-0.80;99.90
1546;DHT22;766;51.502;9.752;2023-01-19T09:37:06;-0.80;99.90
1546;DHT22;766;51.502;9.752;2023-01-19T09:39:34;-0.80;99.90
1546;DHT22;766;51.502;9.752;2023-01-19T09:42:10;-0.80;99.90
1546;DHT22;766;51.502;9.752;2023-01-19T09:44:42;-0.80;99.90
1546;DHT22;766;51.502;9.752;2023-01-19T09:47:20;-0.80;99.90
1546;DHT22;766;51.502;9.752;2023-01-19T09:49:53;-0.80;99.90
1546;DHT22;766;51.502;9.752;2023-01-19T09:52:24;-0.90;99.90
1546;DHT22;766;51.502;9.752;2023-01-19T09:54:55;-0.90;99.90
1546;DHT22;766;51.502;9.752;2023-01-19T09:57:25;-0.90;99.90
1546;DHT22;766;51.502;9.752;2023-01-19T09:59:54;-0.90;99.90
1546;DHT22;766;51.502;9.752;2023-01-19T10:02:33;-0.80;99.90
1546;DHT22;766;51.502;9.752;2023-01-19T10:05:06;-0.80;99.90
1546;DHT22;766;51.502;9.752;2023-01-19T10:07:56;-0.80;99.90
1546;DHT22;766;51.502;9.752;2023-01-19T10:10:31;-0.80;99.90
1546;DHT22;766;51.502;9.752;2023-01-19T10:13:27;-0.90;99.90
1546;DHT22;766;51.502;9.752;2023-01-19T10:16:02;-0.80;99.90
1546;DHT22;766;51.502;9.752;2023-01-19T10:18:42;-0.80;99.90
1546;DHT22;766;51.502;9.752;2023-01-19T10:21:16;-0.80;99.90
1546;DHT22;766;51.502;9.752;2023-01-19T10:23:50;-0.80;99.90
1546;DHT22;766;51.502;9.752;2023-01-19T10:26:23;-0.80;99.90
1546;DHT22;766;51.502;9.752;2023-01-19T10:28:54;-0.80;99.90
1546;DHT22;766;51.502;9.752;2023-01-19T10:31:24;-0.70;99.90
1546;DHT22;766;51.502;9.752;2023-01-19T10:33:54;-0.60;99.90
1546;DHT22;766;51.502;9.752;2023-01-19T10:36:27;-0.60;99.90
1546;DHT22;766;51.502;9.752;2023-01-19T10:38:57;-0.60;99.90
1546;DHT22;766;51.502;9.752;2023-01-19T10:41:29;-0.60;99.90
1546;DHT22;766;51.502;9.752;2023-01-19T10:44:00;-0.60;99.90
1546;DHT22;766;51.502;9.752;2023-01-19T10:46:33;-0.50;99.90
1546;DHT22;766;51.502;9.752;2023-01-19T10:49:05;-0.50;99.90
1546;DHT22;766;51.502;9.752;2023-01-19T10:51:45;-0.50;99.90
1546;DHT22;766;51.502;9.752;2023-01-19T10:54:14;-0.60;99.90
1546;DHT22;766;51.502;9.752;2023-01-19T10:56:50;-0.60;99.90
1546;DHT22;766;51.502;9.752;2023-01-19T10:59:34;-0.50;99.90
1546;DHT22;766;51.502;9.752;2023-01-19T11:02:18;-0.60;99.90
1546;DHT22;766;51.502;9.752;2023-01-19T11:04:49;-0.60;99.90
1546;DHT22;766;51.502;9.752;2023-01-19T11:07:20;-0.50;99.90
1546;DHT22;766;51.502;9.752;2023-01-19T11:10:11;-0.50;99.90
1546;DHT22;766;51.502;9.752;2023-01-19T11:12:43;-0.40;99.90
1546;DHT22;766;51.502;9.752;2023-01-19T11:15:14;-0.40;99.90
1546;DHT22;766;51.502;9.752;2023-01-19T11:17:45;-0.40;99.90
1546;DHT22;766;51.502;9.752;2023-01-19T11:20:22;-0.50;99.90
1546;DHT22;766;51.502;9.752;2023-01-19T11:23:03;-0.40;99.90
1546;DHT22;766;51.502;9.752;2023-01-19T11:25:33;-0.50;99.90
1546;DHT22;766;51.502;9.752;2023-01-19T11:28:03;-0.50;99.90
1546;DHT22;766;51.502;9.752;2023-01-19T11:30:34;-0.50;99.90
1546;DHT22;766;51.502;9.752;2023-01-19T11:33:05;-0.60;99.90
1546;DHT22;766;51.502;9.752;2023-01-19T11:36:02;-0.60;99.90
1546;DHT22;766;51.502;9.752;2023-01-19T11:38:31;-0.60;99.90
1546;DHT22;766;51.502;9.752;2023-01-19T11:41:14;-0.60;99.90
1546;DHT22;766;51.502;9.752;2023-01-19T11:43:43;-0.60;99.90
1546;DHT22;766;51.502;9.752;2023-01-19T11:46:15;-0.50;99.90
1546;DHT22;766;51.502;9.752;2023-01-19T11:48:52;-0.50;99.90
1546;DHT22;766;51.502;9.752;2023-01-19T11:51:28;-0.50;99.90
1546;DHT22;766;51.502;9.752;2023-01-19T11:53:58;-0.50;99.90
1546;DHT22;766;51.502;9.752;2023-01-19T11:56:29;-0.50;99.90
1546;DHT22;766;51.502;9.752;2023-01-19T11:59:01;-0.50;99.90
1546;DHT22;766;51.502;9.752;2023-01-19T12:01:32;-0.50;99.90
1546;DHT22;766;51.502;9.752;2023-01-19T12:04:08;-0.50;99.90
1546;DHT22;766;51.502;9.752;2023-01-19T12:06:41;-0.50;99.90
1546;DHT22;766;51.502;9.752;2023-01-19T12:09:14;-0.50;99.90
1546;DHT22;766;51.502;9.752;2023-01-19T12:11:49;-0.50;99.90
1546;DHT22;766;51.502;9.752;2023-01-19T12:14:23;-0.50;99.90
1546;DHT22;766;51.502;9.752;2023-01-19T12:16:58;-0.50;99.90
1546;DHT22;766;51.502;9.752;2023-01-19T12:19:34;-0.50;99.90
1546;DHT22;766;51.502;9.752;2023-01-19T12:22:13;-0.40;99.90
1546;DHT22;766;51.502;9.752;2023-01-19T12:24:47;-0.40;99.90
1546;DHT22;766;51.502;9.752;2023-01-19T12:27:29;-0.40;99.90
1546;DHT22;766;51.502;9.752;2023-01-19T12:30:01;-0.40;99.90
1546;DHT22;766;51.502;9.752;2023-01-19T12:32:34;-0.40;99.90
1546;DHT22;766;51.502;9.752;2023-01-19T12:38:23;-0.40;99.90
1546;DHT22;766;51.502;9.752;2023-01-19T12:41:16;-0.50;99.90
1546;DHT22;766;51.502;9.752;2023-01-19T12:43:45;-0.40;99.90
1546;DHT22;766;51.502;9.752;2023-01-19T12:46:26;-0.40;99.90
1546;DHT22;766;51.502;9.752;2023-01-19T12:49:03;-0.40;99.90
1546;DHT22;766;51.502;9.752;2023-01-19T12:51:32;-0.40;99.90
1546;DHT22;766;51.502;9.752;2023-01-19T12:54:05;-0.40;99.90
1546;DHT22;766;51.502;9.752;2023-01-19T12:56:36;-0.40;99.90
1546;DHT22;766;51.502;9.752;2023-01-19T12:59:22;-0.40;99.90
1546;DHT22;766;51.502;9.752;2023-01-19T13:05:23;-0.40;99.90
1546;DHT22;766;51.502;9.752;2023-01-19T13:08:14;-0.40;99.90
1546;DHT22;766;51.502;9.752;2023-01-19T13:11:16;-0.40;99.90
1546;DHT22;766;51.502;9.752;2023-01-19T13:17:21;-0.40;99.90
1546;DHT22;766;51.502;9.752;2023-01-19T13:19:57;-0.30;99.90
1546;DHT22;766;51.502;9.752;2023-01-19T13:25:52;-0.30;99.90
1546;DHT22;766;51.502;9.752;2023-01-19T13:28:31;-0.30;99.90
1546;DHT22;766;51.502;9.752;2023-01-19T13:31:01;-0.30;99.90
1546;DHT22;766;51.502;9.752;2023-01-19T13:33:37;-0.30;99.90
1546;DHT22;766;51.502;9.752;2023-01-19T13:36:17;-0.30;99.90
1546;DHT22;766;51.502;9.752;2023-01-19T13:38:47;-0.30;99.90
1546;DHT22;766;51.502;9.752;2023-01-19T13:41:19;-0.30;99.90
1546;DHT22;766;51.502;9.752;2023-01-19T13:43:55;-0.30;99.90
1546;DHT22;766;51.502;9.752;2023-01-19T13:46:26;-0.30;99.90
1546;DHT22;766;51.502;9.752;2023-01-19T13:48:57;-0.30;99.90
1546;DHT22;766;51.502;9.752;2023-01-19T13:51:26;-0.30;99.90
1546;DHT22;766;51.502;9.752;2023-01-19T13:53:56;-0.30;99.90
1546;DHT22;766;51.502;9.752;2023-01-19T13:56:26;-0.30;99.90
1546;DHT22;766;51.502;9.752;2023-01-19T13:59:05;-0.30;99.90
1546;DHT22;766;51.502;9.752;2023-01-19T14:01:38;-0.30;99.90
1546;DHT22;766;51.502;9.752;2023-01-19T14:04:28;-0.30;99.90
1546;DHT22;766;51.502;9.752;2023-01-19T14:07:15;-0.30;99.90
1546;DHT22;766;51.502;9.752;2023-01-19T14:10:02;-0.20;99.90
1546;DHT22;766;51.502;9.752;2023-01-19T14:12:32;-0.20;99.90
1546;DHT22;766;51.502;9.752;2023-01-19T14:15:10;-0.20;99.90
1546;DHT22;766;51.502;9.752;2023-01-19T14:17:40;-0.20;99.90
1546;DHT22;766;51.502;9.752;2023-01-19T14:20:27;-0.20;99.90
1546;DHT22;766;51.502;9.752;2023-01-19T14:22:55;-0.10;99.90
1546;DHT22;766;51.502;9.752;2023-01-19T14:25:28;-0.10;99.90
1546;DHT22;766;51.502;9.752;2023-01-19T14:28:26;-0.10;99.90
1546;DHT22;766;51.502;9.752;2023-01-19T14:30:58;0.00;99.90
1546;DHT22;766;51.502;9.752;2023-01-19T14:33:40;0.00;99.90
1546;DHT22;766;51.502;9.752;2023-01-19T14:36:26;0.00;99.90
1546;DHT22;766;51.502;9.752;2023-01-19T14:38:58;0.00;99.90
1546;DHT22;766;51.502;9.752;2023-01-19T14:41:32;0.00;99.90
1546;DHT22;766;51.502;9.752;2023-01-19T14:44:07;0.00;99.90
1546;DHT22;766;51.502;9.752;2023-01-19T14:46:37;0.00;99.90
1546;DHT22;766;51.502;9.752;2023-01-19T14:49:16;0.10;99.90
1546;DHT22;766;51.502;9.752;2023-01-19T14:51:46;0.10;99.90
1546;DHT22;766;51.502;9.752;2023-01-19T14:54:17;0.10;99.90
1546;DHT22;766;51.502;9.752;2023-01-19T14:56:46;0.20;99.90
1546;DHT22;766;51.502;9.752;2023-01-19T14:59:15;0.10;99.90
1546;DHT22;766;51.502;9.752;2023-01-19T15:01:45;0.10;99.90
1546;DHT22;766;51.502;9.752;2023-01-19T15:04:13;0.20;99.90
1546;DHT22;766;51.502;9.752;2023-01-19T15:06:41;0.20;99.90
1546;DHT22;766;51.502;9.752;2023-01-19T15:09:12;0.20;99.90
1546;DHT22;766;51.502;9.752;2023-01-19T15:11:41;0.10;99.90
1546;DHT22;766;51.502;9.752;2023-01-19T15:14:12;0.10;99.90
1546;DHT22;766;51.502;9.752;2023-01-19T15:16:46;0.10;99.90
1546;DHT22;766;51.502;9.752;2023-01-19T15:19:16;0.10;99.90
1546;DHT22;766;51.502;9.752;2023-01-19T15:21:46;0.10;99.90
1546;DHT22;766;51.502;9.752;2023-01-19T15:24:14;0.10;99.90
1546;DHT22;766;51.502;9.752;2023-01-19T15:26:44;0.10;99.90
1546;DHT22;766;51.502;9.752;2023-01-19T15:29:20;0.10;99.90
1546;DHT22;766;51.502;9.752;2023-01-19T15:31:52;0.10;99.90
1546;DHT22;766;51.502;9.752;2023-01-19T15:34:20;0.10;99.90
1546;DHT22;766;51.502;9.752;2023-01-19T15:36:49;0.10;99.90
1546;DHT22;766;51.502;9.752;2023-01-19T15:39:17;0.10;99.90
1546;DHT22;766;51.502;9.752;2023-01-19T15:41:48;0.10;99.90
1546;DHT22;766;51.502;9.752;2023-01-19T15:44:18;0.10;99.90
1546;DHT22;766;51.502;9.752;2023-01-19T15:46:46;0.10;99.90
1546;DHT22;766;51.502;9.752;2023-01-19T15:49:17;0.10;99.90
1546;DHT22;766;51.502;9.752;2023-01-19T15:51:45;0.10;99.90
1546;DHT22;766;51.502;9.752;2023-01-19T15:54:14;0.20;99.90
1546;DHT22;766;51.502;9.752;2023-01-19T15:56:43;0.10;99.90
1546;DHT22;766;51.502;9.752;2023-01-19T15:59:14;0.10;99.90
1546;DHT22;766;51.502;9.752;2023-01-19T16:01:43;0.20;99.90
1546;DHT22;766;51.502;9.752;2023-01-19T16:04:11;0.20;99.90
1546;DHT22;766;51.502;9.752;2023-01-19T16:06:42;0.10;99.90
1546;DHT22;766;51.502;9.752;2023-01-19T16:09:11;0.20;99.90
1546;DHT22;766;51.502;9.752;2023-01-19T16:11:44;0.10;99.90
1546;DHT22;766;51.502;9.752;2023-01-19T16:14:13;0.10;99.90
1546;DHT22;766;51.502;9.752;2023-01-19T16:16:43;0.20;99.90
1546;DHT22;766;51.502;9.752;2023-01-19T16:19:13;0.20;99.90
1546;DHT22;766;51.502;9.752;2023-01-19T16:21:44;0.20;99.90
1546;DHT22;766;51.502;9.752;2023-01-19T16:24:12;0.20;99.90
1546;DHT22;766;51.502;9.752;2023-01-19T16:26:42;0.20;99.90
1546;DHT22;766;51.502;9.752;2023-01-19T16:29:11;0.30;99.90
1546;DHT22;766;51.502;9.752;2023-01-19T16:31:40;0.20;99.90
1546;DHT22;766;51.502;9.752;2023-01-19T16:34:09;0.20;99.90
1546;DHT22;766;51.502;9.752;2023-01-19T16:36:39;0.30;99.90
1546;DHT22;766;51.502;9.752;2023-01-19T16:39:12;0.30;99.90
1546;DHT22;766;51.502;9.752;2023-01-19T16:41:41;0.30;99.90
1546;DHT22;766;51.502;9.752;2023-01-19T16:44:12;0.30;99.90
1546;DHT22;766;51.502;9.752;2023-01-19T16:46:44;0.30;99.90
1546;DHT22;766;51.502;9.752;2023-01-19T16:49:16;0.30;99.90
1546;DHT22;766;51.502;9.752;2023-01-19T16:51:45;0.20;99.90
1546;DHT22;766;51.502;9.752;2023-01-19T16:54:18;0.30;99.90
1546;DHT22;766;51.502;9.752;2023-01-19T16:56:48;0.30;99.90
1546;DHT22;766;51.502;9.752;2023-01-19T16:59:17;0.20;99.90
1546;DHT22;766;51.502;9.752;2023-01-19T17:01:49;0.20;99.90
1546;DHT22;766;51.502;9.752;2023-01-19T17:04:19;0.20;99.90
1546;DHT22;766;51.502;9.752;2023-01-19T17:06:48;0.20;99.90